Hope Valley, United Kingdom
Current Conditions -  °F | °C
As of 6:20 PM on Wednesday 28 Jan 2015 (Local Time) from EGCC Reporting Station
Snow Showers Snow Showers  
Wind Chill: 26°   Ceiling: 2400
Heat Index: 36°   Visibility: 4mi
Dew Point: 32°   Wind: 16mph
Humidity: 87%   Direction: 290°WNW
Pressure: 29.44"   Gusts: NA
Location:  53.33°N, 1.65°W
Report Text: EGCC 281820Z 29014KT 6000 SHRASN SCT010CB BKN024 BKN029 02/M00 Q0997 RESHRA RESN TEMPO 3000 SHRASN
Loading
Personal Weather Stations






























Interactive Weather Map New forecast layout! Learn more

10-Day Weather Forecast

Advertisements
Track Severe Weather on mobile